createdAt,value
2022-09-07T00:01:36.198Z,99926.88
2022-09-07T00:04:03.901Z,99928.16
2022-09-07T00:06:34.499Z,99927.56
2022-09-07T00:09:02.318Z,99925.59
2022-09-07T00:11:30.013Z,99931.31
2022-09-07T00:13:57.385Z,99925.22
2022-09-07T00:16:26.918Z,99927.34
2022-09-07T00:18:55.710Z,99933.19
2022-09-07T00:21:23.113Z,99918.31
2022-09-07T00:23:50.617Z,99923.84
2022-09-07T00:26:22.718Z,99921.94
2022-09-07T00:28:50.162Z,99911.28
2022-09-07T00:31:20.271Z,99920.06
2022-09-07T00:33:49.099Z,99912.09
2022-09-07T00:36:17.211Z,99910.91
2022-09-07T00:38:45.108Z,99905.47
2022-09-07T00:41:12.606Z,99910.41
2022-09-07T00:43:42.127Z,99908.31
2022-09-07T00:46:32.753Z,99906.44
2022-09-07T00:49:09.182Z,99908.47
2022-09-07T00:51:41.321Z,99909.66
2022-09-07T00:54:14.432Z,99906.59
2022-09-07T00:56:42.298Z,99907.22
2022-09-07T00:59:09.901Z,99906.72
2022-09-07T01:01:37.406Z,99898.59
2022-09-07T01:04:05.163Z,99901.78
2022-09-07T01:06:34.274Z,99900.63
2022-09-07T01:09:04.467Z,99898.59
2022-09-07T01:11:33.924Z,99906.47
2022-09-07T01:14:01.334Z,99914.75
2022-09-07T01:16:47.625Z,99907.50
2022-09-07T01:19:40.007Z,99911.94
2022-09-07T01:22:13.491Z,99907.25
2022-09-07T01:25:09.674Z,99896.06
2022-09-07T01:28:00.962Z,99894.19
2022-09-07T01:30:28.648Z,99895.37
2022-09-07T01:33:34.506Z,99891.41
2022-09-07T01:36:19.010Z,99892.06
2022-09-07T01:38:58.880Z,99893.84
2022-09-07T01:41:49.688Z,99894.00
2022-09-07T01:44:20.201Z,99891.91
2022-09-07T01:47:12.439Z,99892.66
2022-09-07T01:49:48.605Z,99887.78
2022-09-07T01:52:18.829Z,99881.84
2022-09-07T01:54:55.415Z,99879.53
2022-09-07T01:57:26.605Z,99884.41
2022-09-07T01:59:58.990Z,99886.06
2022-09-07T02:02:30.948Z,99879.19
2022-09-07T02:05:10.550Z,99872.41
2022-09-07T02:07:58.666Z,99874.78
2022-09-07T02:10:35.120Z,99872.75
2022-09-07T02:13:18.950Z,99879.56
2022-09-07T02:15:52.313Z,99870.00
2022-09-07T02:18:22.870Z,99877.56
2022-09-07T02:20:52.434Z,99873.88
2022-09-07T02:23:22.598Z,99867.41
2022-09-07T02:25:56.310Z,99879.09
2022-09-07T02:28:29.623Z,99862.59
2022-09-07T02:30:57.371Z,99863.56
2022-09-07T02:33:24.791Z,99866.88
2022-09-07T02:35:52.208Z,99866.69
2022-09-07T02:38:19.908Z,99861.38
2022-09-07T02:40:52.282Z,99859.94
2022-09-07T02:43:20.063Z,99858.00
2022-09-07T02:46:10.689Z,99854.41
2022-09-07T02:48:41.012Z,99854.38
2022-09-07T02:51:11.113Z,99858.53
2022-09-07T02:53:56.952Z,99854.38
2022-09-07T02:56:36.418Z,99848.00
2022-09-07T02:59:06.861Z,99839.28
2022-09-07T03:02:01.617Z,99851.00
2022-09-07T03:04:35.190Z,99853.25
2022-09-07T03:07:11.214Z,99852.06
2022-09-07T03:09:41.661Z,99854.34
2022-09-07T03:12:09.109Z,99843.28
2022-09-07T03:14:37.751Z,99847.63
2022-09-07T03:17:05.418Z,99844.47
2022-09-07T03:19:32.813Z,99838.50
2022-09-07T03:22:00.267Z,99847.56
2022-09-07T03:24:27.925Z,99841.06
2022-09-07T03:26:55.356Z,99841.44
2022-09-07T03:29:22.767Z,99839.31
2022-09-07T03:31:50.465Z,99845.31
2022-09-07T03:34:18.093Z,99842.31
2022-09-07T03:36:45.532Z,99846.09
2022-09-07T03:39:13.914Z,99843.31
2022-09-07T03:41:41.326Z,99845.28
2022-09-07T03:44:08.968Z,99850.69
2022-09-07T03:46:36.686Z,99846.44
2022-09-07T03:49:04.125Z,99849.53
2022-09-07T03:51:31.550Z,99850.66
2022-09-07T03:54:00.386Z,99856.16
2022-09-07T03:56:27.837Z,99857.25
2022-09-07T03:58:55.272Z,99859.56
2022-09-07T04:01:24.377Z,99860.09
2022-09-07T04:03:52.253Z,99862.69
2022-09-07T04:06:19.783Z,99861.63
2022-09-07T04:08:47.207Z,99865.44
2022-09-07T04:11:17.249Z,99868.22
2022-09-07T04:13:45.181Z,99867.78
2022-09-07T04:16:14.408Z,99869.81
2022-09-07T04:18:42.085Z,99872.03
2022-09-07T04:21:09.610Z,99868.44
2022-09-07T04:23:38.859Z,99871.91
2022-09-07T04:26:06.492Z,99870.97
2022-09-07T04:28:33.896Z,99874.59
2022-09-07T04:31:04.326Z,99870.66
2022-09-07T04:33:32.263Z,99875.56
2022-09-07T04:36:00.952Z,99883.88
2022-09-07T04:38:28.612Z,99883.41
2022-09-07T04:41:10.094Z,99888.22
2022-09-07T04:43:37.862Z,99890.12
2022-09-07T04:46:06.748Z,99886.25
2022-09-07T04:48:34.308Z,99886.06
2022-09-07T04:51:08.925Z,99884.06
2022-09-07T04:53:37.266Z,99892.25
2022-09-07T04:56:04.879Z,99886.47
2022-09-07T04:58:32.287Z,99883.94
2022-09-07T05:01:04.001Z,99888.31
2022-09-07T05:03:31.490Z,99889.88
2022-09-07T05:06:02.544Z,99884.59
2022-09-07T05:08:30.343Z,99882.50
2022-09-07T05:10:57.841Z,99886.97
2022-09-07T05:13:25.563Z,99885.22
2022-09-07T05:15:53.231Z,99887.16
2022-09-07T05:18:21.287Z,99892.88
2022-09-07T05:20:48.675Z,99888.72
2022-09-07T05:23:16.888Z,99898.19
2022-09-07T05:25:44.923Z,99897.50
2022-09-07T05:28:15.986Z,99890.38
2022-09-07T05:36:22.715Z,99904.56
2022-09-07T05:38:50.142Z,99894.81
2022-09-07T05:41:19.552Z,99913.12
2022-09-07T05:46:34.890Z,99905.91
2022-09-07T05:49:03.613Z,99895.28
2022-09-07T05:51:30.969Z,99902.78
2022-09-07T05:53:58.660Z,99896.81
2022-09-07T05:56:26.337Z,99904.78
2022-09-07T05:58:53.845Z,99897.47
2022-09-07T06:01:21.225Z,99907.59
2022-09-07T06:03:48.924Z,99897.59
2022-09-07T06:06:17.466Z,99903.16
2022-09-07T06:08:49.312Z,99908.09
2022-09-07T06:11:19.162Z,99904.66
2022-09-07T06:13:46.689Z,99908.56
2022-09-07T06:16:14.513Z,99906.28
2022-09-07T06:18:43.676Z,99909.41
2022-09-07T06:21:12.918Z,99915.91
2022-09-07T06:23:41.021Z,99914.44
2022-09-07T06:26:09.134Z,99913.03
2022-09-07T06:28:41.430Z,99908.56
2022-09-07T06:31:10.788Z,99899.84
2022-09-07T06:33:38.353Z,99900.22
2022-09-07T06:36:13.243Z,99898.25
2022-09-07T06:38:41.043Z,99900.63
2022-09-07T06:44:18.423Z,99903.09
2022-09-07T06:49:33.595Z,99898.50
2022-09-07T06:52:00.978Z,99902.78
2022-09-07T06:57:16.081Z,99896.97
2022-09-07T06:59:43.517Z,99891.38
2022-09-07T07:02:11.492Z,99891.63
2022-09-07T07:04:41.009Z,99887.69
2022-09-07T07:07:12.441Z,99891.38
2022-09-07T07:09:40.160Z,99891.19
2022-09-07T07:12:07.625Z,99893.16
2022-09-07T07:14:37.393Z,99895.03
2022-09-07T07:17:07.490Z,99901.16
2022-09-07T07:19:34.918Z,99902.16
2022-09-07T07:22:14.446Z,99914.09
2022-09-07T07:24:49.960Z,99904.81
2022-09-07T07:27:17.621Z,99907.44
2022-09-07T07:29:45.732Z,99909.84
2022-09-07T07:32:13.427Z,99900.38
2022-09-07T07:34:40.816Z,99903.16
2022-09-07T07:37:08.282Z,99891.22
2022-09-07T07:42:23.305Z,99894.56
2022-09-07T07:47:38.445Z,99899.00
2022-09-07T07:55:44.070Z,99897.41
2022-09-07T07:58:13.008Z,99891.47
2022-09-07T08:00:56.596Z,99890.91
2022-09-07T08:03:24.957Z,99895.84
2022-09-07T08:05:52.487Z,99886.19
2022-09-07T08:08:20.064Z,99889.28
2022-09-07T08:10:47.866Z,99890.97
2022-09-07T08:13:16.118Z,99890.12
2022-09-07T08:15:46.595Z,99897.09
2022-09-07T08:18:15.778Z,99898.94
2022-09-07T08:20:43.352Z,99895.13
2022-09-07T08:23:11.796Z,99892.44
2022-09-07T08:25:39.574Z,99897.22
2022-09-07T08:28:06.972Z,99887.97
2022-09-07T08:30:34.303Z,99888.47
2022-09-07T08:33:01.958Z,99888.31
2022-09-07T08:35:29.326Z,99882.28
2022-09-07T08:37:56.935Z,99892.22
2022-09-07T08:40:24.787Z,99885.09
2022-09-07T08:43:01.237Z,99886.69
2022-09-07T08:45:43.924Z,99886.03
2022-09-07T08:48:14.867Z,99882.53
2022-09-07T08:51:04.672Z,99875.31
2022-09-07T08:53:32.181Z,99869.81
2022-09-07T08:56:09.647Z,99878.41
2022-09-07T08:58:50.570Z,99864.34
2022-09-07T09:01:35.761Z,99864.41
2022-09-07T09:04:21.095Z,99862.09
2022-09-07T09:07:17.726Z,99853.94
2022-09-07T09:10:01.561Z,99852.88
2022-09-07T09:12:37.473Z,99861.44
2022-09-07T09:15:10.282Z,99863.94
2022-09-07T09:17:48.177Z,99861.00
2022-09-07T09:20:53.557Z,99852.53
2022-09-07T09:23:24.665Z,99854.19
2022-09-07T09:25:56.557Z,99856.09
2022-09-07T09:28:26.458Z,99851.44
2022-09-07T09:30:56.359Z,99852.56
2022-09-07T09:33:27.937Z,99853.03
2022-09-07T09:35:56.970Z,99848.69
2022-09-07T09:38:33.917Z,99843.84
2022-09-07T09:41:12.098Z,99841.87
2022-09-07T09:43:51.799Z,99839.88
2022-09-07T09:46:33.506Z,99837.19
2022-09-07T09:49:01.805Z,99839.34
2022-09-07T09:54:19.245Z,99823.34
2022-09-07T09:56:47.177Z,99828.84
2022-09-07T10:05:40.981Z,99803.19
2022-09-07T10:08:31.386Z,99795.03
2022-09-07T10:11:00.715Z,99793.34
2022-09-07T10:14:07.085Z,99777.41
2022-09-07T10:16:44.288Z,99776.78
2022-09-07T10:19:47.136Z,99775.50
2022-09-07T10:22:35.134Z,99752.91
2022-09-07T10:25:04.558Z,99755.75
2022-09-07T10:27:35.633Z,99755.56
2022-09-07T10:30:10.009Z,99771.38
2022-09-07T10:32:46.632Z,99773.81
2022-09-07T10:35:31.841Z,99785.81
2022-09-07T10:38:11.690Z,99777.56
2022-09-07T10:40:42.885Z,99789.16
2022-09-07T10:43:23.790Z,99789.84
2022-09-07T10:49:32.539Z,99793.59
2022-09-07T10:52:05.001Z,99791.22
2022-09-07T10:54:56.467Z,99790.72
2022-09-07T10:57:33.277Z,99795.81
2022-09-07T11:00:13.930Z,99795.63
2022-09-07T11:03:26.923Z,99792.59
2022-09-07T11:06:13.005Z,99794.06
2022-09-07T11:12:03.643Z,99795.75
2022-09-07T11:14:36.593Z,99785.16
2022-09-07T11:17:08.632Z,99797.66
2022-09-07T11:19:50.425Z,99782.69
2022-09-07T11:22:34.398Z,99778.03
2022-09-07T11:25:38.044Z,99784.72
2022-09-07T11:28:17.926Z,99780.94
2022-09-07T11:30:48.108Z,99780.72
2022-09-07T11:33:32.094Z,99779.63
2022-09-07T11:36:02.338Z,99776.31
2022-09-07T11:38:57.386Z,99778.94
2022-09-07T11:41:29.626Z,99768.19
2022-09-07T11:44:21.806Z,99767.72
2022-09-07T11:46:51.346Z,99773.84
2022-09-07T11:49:25.977Z,99769.97
2022-09-07T11:52:05.078Z,99776.91
2022-09-07T11:54:35.824Z,99772.47
2022-09-07T11:57:15.399Z,99770.31
2022-09-07T12:00:12.085Z,99767.91
2022-09-07T12:03:02.076Z,99755.16
2022-09-07T12:05:51.328Z,99760.06
2022-09-07T12:08:54.053Z,99744.56
2022-09-07T12:11:40.259Z,99745.41
2022-09-07T12:14:17.053Z,99741.81
2022-09-07T12:17:01.974Z,99744.03
2022-09-07T12:19:29.718Z,99741.72
2022-09-07T12:21:57.954Z,99740.91
2022-09-07T12:24:35.193Z,99749.03
2022-09-07T12:27:21.970Z,99747.03
2022-09-07T12:29:59.528Z,99738.16
2022-09-07T12:32:57.981Z,99739.78
2022-09-07T12:35:28.711Z,99740.38
2022-09-07T12:38:03.033Z,99742.53
2022-09-07T12:40:37.201Z,99737.62
2022-09-07T12:43:14.070Z,99738.47
2022-09-07T12:45:41.981Z,99737.19
2022-09-07T12:48:15.586Z,99736.63
2022-09-07T12:51:02.862Z,99736.13
2022-09-07T12:53:30.958Z,99726.28
2022-09-07T12:56:17.228Z,99730.78
2022-09-07T12:58:45.072Z,99725.41
2022-09-07T13:01:21.770Z,99724.88
2022-09-07T13:04:12.886Z,99730.12
2022-09-07T13:07:06.656Z,99723.50
2022-09-07T13:09:40.192Z,99719.75
2022-09-07T13:15:44.906Z,99713.19
2022-09-07T13:18:35.222Z,99709.72
2022-09-07T13:21:08.885Z,99708.09
2022-09-07T13:23:37.829Z,99703.25
2022-09-07T13:26:09.780Z,99703.44
2022-09-07T13:28:56.225Z,99699.22
2022-09-07T13:31:45.150Z,99693.59
2022-09-07T13:34:34.124Z,99696.28
2022-09-07T13:37:02.577Z,99691.34
2022-09-07T13:39:30.111Z,99688.44
2022-09-07T13:41:58.326Z,99683.47
2022-09-07T13:44:30.073Z,99686.47
2022-09-07T13:47:13.551Z,99685.16
2022-09-07T13:49:47.258Z,99688.34
2022-09-07T13:52:19.413Z,99674.56
2022-09-07T13:55:17.755Z,99672.97
2022-09-07T13:58:04.647Z,99672.09
2022-09-07T14:00:32.928Z,99675.00
2022-09-07T14:03:05.566Z,99667.03
2022-09-07T14:05:33.232Z,99665.81
2022-09-07T14:08:00.842Z,99670.41
2022-09-07T14:10:29.235Z,99665.94
2022-09-07T14:13:11.707Z,99668.63
2022-09-07T14:15:41.654Z,99667.50
2022-09-07T14:18:13.486Z,99662.62
2022-09-07T14:20:51.771Z,99665.94
2022-09-07T14:23:24.951Z,99670.03
2022-09-07T14:26:18.791Z,99673.06
2022-09-07T14:28:47.928Z,99672.84
2022-09-07T14:31:17.144Z,99670.53
2022-09-07T14:33:58.222Z,99667.09
2022-09-07T14:36:48.478Z,99663.97
2022-09-07T14:39:16.759Z,99656.31
2022-09-07T14:41:44.594Z,99660.09
2022-09-07T14:44:33.712Z,99662.47
2022-09-07T14:47:11.661Z,99659.34
2022-09-07T14:49:38.977Z,99653.78
2022-09-07T14:52:06.582Z,99662.88
2022-09-07T14:54:34.209Z,99660.41
2022-09-07T14:57:06.422Z,99649.81
2022-09-07T14:59:41.294Z,99656.16
2022-09-07T15:02:24.086Z,99649.38
2022-09-07T15:05:18.392Z,99653.38
2022-09-07T15:07:47.680Z,99652.56
2022-09-07T15:10:21.286Z,99651.03
2022-09-07T15:12:49.275Z,99656.28
2022-09-07T15:15:27.882Z,99656.22
2022-09-07T15:17:58.977Z,99654.62
2022-09-07T15:20:38.411Z,99655.50
2022-09-07T15:23:16.656Z,99644.09
2022-09-07T15:25:50.517Z,99638.91
2022-09-07T15:34:10.283Z,99639.59
2022-09-07T15:36:40.343Z,99647.28
2022-09-07T15:39:08.778Z,99647.66
2022-09-07T15:41:36.207Z,99651.03
2022-09-07T15:44:03.906Z,99649.78
2022-09-07T15:46:32.438Z,99651.03
2022-09-07T15:49:01.687Z,99645.56
2022-09-07T15:54:16.776Z,99654.47
2022-09-07T15:57:48.083Z,99656.34
2022-09-07T15:59:31.778Z,99650.94
2022-09-07T16:01:59.578Z,99668.50
2022-09-07T16:04:27.604Z,99666.22
2022-09-07T16:06:55.041Z,99662.75
2022-09-07T16:09:22.705Z,99664.47
2022-09-07T16:11:52.083Z,99653.84
2022-09-07T16:14:19.471Z,99656.09
2022-09-07T16:19:36.135Z,99653.16
2022-09-07T16:22:03.763Z,99670.00
2022-09-07T16:24:31.156Z,99664.84
2022-09-07T16:27:00.896Z,99664.09
2022-09-07T16:29:29.368Z,99661.66
2022-09-07T16:34:44.958Z,99655.44
2022-09-07T16:37:12.425Z,99650.66
2022-09-07T16:39:41.836Z,99645.47
2022-09-07T16:42:09.788Z,99650.41
2022-09-07T16:44:38.400Z,99639.31
2022-09-07T16:47:07.997Z,99643.28
2022-09-07T16:49:35.841Z,99636.22
2022-09-07T16:52:05.241Z,99630.31
2022-09-07T16:54:32.730Z,99637.44
2022-09-07T16:57:00.357Z,99627.41
2022-09-07T16:59:27.788Z,99620.41
2022-09-07T17:01:55.393Z,99619.13
2022-09-07T17:04:23.393Z,99622.94
2022-09-07T17:06:52.521Z,99617.34
2022-09-07T17:09:20.576Z,99619.28
2022-09-07T17:11:48.394Z,99620.13
2022-09-07T17:14:15.745Z,99614.16
2022-09-07T17:16:43.208Z,99617.50
2022-09-07T17:22:00.713Z,99627.63
2022-09-07T17:24:28.471Z,99626.28
2022-09-07T17:26:55.829Z,99630.94
2022-09-07T17:29:23.189Z,99626.56
2022-09-07T17:34:38.426Z,99629.84
2022-09-07T17:37:06.172Z,99641.25
2022-09-07T17:39:33.842Z,99646.16
2022-09-07T17:42:01.335Z,99651.06
2022-09-07T17:44:33.238Z,99652.69
2022-09-07T17:47:03.298Z,99654.06
2022-09-07T17:49:30.930Z,99654.31
2022-09-07T17:51:59.925Z,99663.56
2022-09-07T17:54:27.516Z,99663.50
2022-09-07T17:56:55.106Z,99666.75
2022-09-07T18:02:12.453Z,99668.38
2022-09-07T18:04:40.168Z,99672.72
2022-09-07T18:07:07.730Z,99674.34
2022-09-07T18:09:35.360Z,99674.91
2022-09-07T18:12:03.333Z,99684.12
2022-09-07T18:14:31.027Z,99689.56
2022-09-07T18:16:58.500Z,99690.84
2022-09-07T18:19:26.541Z,99680.00
2022-09-07T18:21:54.149Z,99687.59
2022-09-07T18:24:23.521Z,99690.88
2022-09-07T18:26:52.750Z,99692.22
2022-09-07T18:29:32.518Z,99694.38
2022-09-07T18:32:04.790Z,99690.00
2022-09-07T18:34:35.021Z,99683.75
2022-09-07T18:37:04.600Z,99690.50
2022-09-07T18:39:33.713Z,99692.19
2022-09-07T18:42:01.129Z,99685.94
2022-09-07T18:47:23.232Z,99691.91
2022-09-07T18:49:55.506Z,99690.00
2022-09-07T18:55:13.642Z,99688.44
2022-09-07T18:57:41.414Z,99685.78
2022-09-07T19:00:10.667Z,99675.81
2022-09-07T19:02:38.502Z,99681.16
2022-09-07T19:08:03.592Z,99676.22
2022-09-07T19:10:37.383Z,99676.97
2022-09-07T19:13:05.107Z,99673.97
2022-09-07T19:15:37.486Z,99670.66
2022-09-07T19:18:06.717Z,99667.94
2022-09-07T19:20:34.837Z,99663.66
2022-09-07T19:23:03.515Z,99663.56
2022-09-07T19:25:31.186Z,99674.34
2022-09-07T19:27:59.423Z,99666.41
2022-09-07T19:30:28.007Z,99673.37
2022-09-07T19:32:55.634Z,99677.94
2022-09-07T19:35:23.093Z,99674.19
2022-09-07T19:37:50.518Z,99677.25
2022-09-07T19:40:19.426Z,99677.94
2022-09-07T19:42:46.957Z,99686.97
2022-09-07T19:45:15.790Z,99676.84
2022-09-07T19:47:43.838Z,99666.94
2022-09-07T19:50:11.170Z,99665.09
2022-09-07T19:52:38.493Z,99681.91
2022-09-07T19:55:06.748Z,99667.88
2022-09-07T19:57:34.210Z,99672.50
2022-09-07T20:00:02.976Z,99667.66
2022-09-07T20:02:39.594Z,99666.31
2022-09-07T20:05:07.821Z,99668.25
2022-09-07T20:07:36.218Z,99672.59
2022-09-07T20:10:03.576Z,99669.03
2022-09-07T20:12:31.161Z,99667.91
2022-09-07T20:14:58.514Z,99673.87
2022-09-07T20:17:25.869Z,99671.00
2022-09-07T20:19:53.440Z,99667.84
2022-09-07T20:22:20.761Z,99667.81
2022-09-07T20:24:48.087Z,99668.34
2022-09-07T20:27:15.745Z,99669.44
2022-09-07T20:29:43.073Z,99672.09
2022-09-07T20:32:10.670Z,99665.22
2022-09-07T20:34:38.369Z,99661.66
2022-09-07T20:37:05.711Z,99670.16
2022-09-07T20:39:38.399Z,99662.12
2022-09-07T20:42:07.743Z,99669.19
2022-09-07T20:44:35.089Z,99671.63
2022-09-07T20:47:02.785Z,99667.88
2022-09-07T20:49:30.413Z,99661.09
2022-09-07T20:51:57.754Z,99665.81
2022-09-07T20:54:25.116Z,99654.38
2022-09-07T20:56:52.720Z,99653.62
2022-09-07T20:59:20.127Z,99660.13
2022-09-07T21:01:47.545Z,99659.63
2022-09-07T21:04:15.166Z,99661.00
2022-09-07T21:06:42.486Z,99660.31
2022-09-07T21:09:10.598Z,99660.84
2022-09-07T21:11:38.624Z,99657.34
2022-09-07T21:14:07.752Z,99657.47
2022-09-07T21:16:35.612Z,99656.22
2022-09-07T21:19:04.897Z,99644.88
2022-09-07T21:21:38.355Z,99644.56
2022-09-07T21:24:07.488Z,99650.00
2022-09-07T21:26:34.993Z,99647.69
2022-09-07T21:29:03.788Z,99643.00
2022-09-07T21:31:31.918Z,99649.69
2022-09-07T21:34:00.476Z,99650.06
2022-09-07T21:36:27.947Z,99642.75
2022-09-07T21:38:55.882Z,99646.88
2022-09-07T21:41:23.805Z,99649.56
2022-09-07T21:43:58.082Z,99639.44
2022-09-07T21:46:26.046Z,99649.16
2022-09-07T21:48:54.805Z,99654.44
2022-09-07T21:51:22.341Z,99655.25
2022-09-07T21:53:57.172Z,99658.28
2022-09-07T21:56:24.762Z,99648.94
2022-09-07T21:58:59.142Z,99649.84
2022-09-07T22:01:27.052Z,99648.97
2022-09-07T22:03:59.386Z,99641.97
2022-09-07T22:06:27.848Z,99646.59
2022-09-07T22:08:55.836Z,99655.75
2022-09-07T22:11:23.712Z,99658.37
2022-09-07T22:13:54.505Z,99665.63
2022-09-07T22:16:22.212Z,99656.81
2022-09-07T22:18:49.706Z,99657.19
2022-09-07T22:21:19.211Z,99658.59
2022-09-07T22:23:48.670Z,99658.25
2022-09-07T22:26:20.060Z,99653.59
2022-09-07T22:28:47.745Z,99654.22
2022-09-07T22:31:17.058Z,99648.03
2022-09-07T22:33:44.859Z,99654.94
2022-09-07T22:36:22.355Z,99648.00
2022-09-07T22:38:51.852Z,99649.81
2022-09-07T22:41:20.962Z,99650.87
2022-09-07T22:43:50.688Z,99657.03
2022-09-07T22:46:19.270Z,99646.88
2022-09-07T22:48:46.943Z,99649.44
2022-09-07T22:51:14.303Z,99637.88
2022-09-07T22:53:42.353Z,99633.84
2022-09-07T22:56:14.546Z,99634.59
2022-09-07T22:58:45.814Z,99629.00
2022-09-07T23:01:13.426Z,99623.91
2022-09-07T23:03:40.827Z,99629.31
2022-09-07T23:06:08.700Z,99624.22
2022-09-07T23:08:36.466Z,99624.53
2022-09-07T23:11:05.085Z,99613.19
2022-09-07T23:13:33.202Z,99612.31
2022-09-07T23:16:06.045Z,99613.88
2022-09-07T23:18:33.937Z,99613.59
2022-09-07T23:21:01.805Z,99603.00
2022-09-07T23:23:29.478Z,99604.22
2022-09-07T23:25:56.872Z,99604.87
2022-09-07T23:28:24.486Z,99603.41
2022-09-07T23:30:51.840Z,99601.44
2022-09-07T23:33:19.191Z,99604.87
2022-09-07T23:35:56.630Z,99592.50
2022-09-07T23:38:25.042Z,99589.56
2022-09-07T23:40:53.657Z,99584.38
2022-09-07T23:43:21.864Z,99585.31
2022-09-07T23:45:49.344Z,99584.72
2022-09-07T23:48:16.925Z,99580.31
2022-09-07T23:50:44.920Z,99582.31
2022-09-07T23:53:12.376Z,99579.47
2022-09-07T23:55:40.013Z,99581.28
2022-09-07T23:58:07.899Z,99582.84
